www.wetter-lohne.de
Wetterdaten: aktuell Mittwoch, 06.05.2026 20:30
Datum Zeit Temp. I. Temp. A. Boden 5cm Temp. A. min Temp. A. max Feuchte I. Feuchte A. Luftdruck Regen Wind Richtung Richtung Sonnenschein ET Solar Taupunkt Windchill Windböen Empfang
06.05.2026 20:30 18,7 °C 9,6 °C 10,0 °C 9,6 °C 9,6 °C 57 % 89 % 1008,5 hPa 0,0 mm 0,0 km/h (0 Bft) N-NW 340 ° 10 min 0,051 mm 21 W/m² 7,9 °C 9,6 °C 0,0 km/h (0 Bft) 100,00 %
06.05.2026 19:30 18,8 °C 9,9 °C 10,6 °C 9,8 °C 9,9 °C 56 % 90 % 1008,1 hPa 0,2 mm 0,0 km/h (0 Bft) N-NW 340 ° 5 min 0,050 mm 110 W/m² 8,3 °C 9,9 °C 0,0 km/h (0 Bft) 100,00 %
06.05.2026 18:30 18,8 °C 9,7 °C 11,1 °C 9,6 °C 9,7 °C 56 % 90 % 1007,9 hPa 0,2 mm 0,4 km/h (0 Bft) N 350 ° 0 min 0,077 mm 112 W/m² 8,1 °C 9,7 °C 4,8 km/h (1 Bft) 83,33 %
06.05.2026 17:30 18,8 °C 9,3 °C 10,6 °C 9,2 °C 9,3 °C 56 % 91 % 1008,1 hPa 0,6 mm 0,0 km/h (0 Bft) N 7 ° 0 min 0,050 mm 168 W/m² 7,9 °C 9,3 °C 0,0 km/h (0 Bft) 98,33 %
06.05.2026 16:30 18,8 °C 8,9 °C 10,0 °C 8,9 °C 8,9 °C 56 % 90 % 1008,0 hPa 1,0 mm 0,0 km/h (0 Bft) NO 42 ° 0 min 0,051 mm 108 W/m² 7,4 °C 8,9 °C 0,0 km/h (0 Bft) 97,37 %
06.05.2026 15:30 18,9 °C 9,1 °C 10,0 °C 9,1 °C 9,2 °C 56 % 91 % 1007,7 hPa 1,6 mm 1,2 km/h (1 Bft) N 350 ° 0 min 0,051 mm 95 W/m² 7,7 °C 9,1 °C 8,0 km/h (2 Bft) 97,50 %
06.05.2026 14:30 18,9 °C 9,4 °C 10,6 °C 9,3 °C 9,4 °C 56 % 92 % 1007,5 hPa 1,6 mm 0,0 km/h (0 Bft) N-NO 15 ° 0 min 0,051 mm 100 W/m² 8,2 °C 9,4 °C 0,0 km/h (0 Bft) 100,00 %
06.05.2026 13:42 19,0 °C 9,2 °C 10,0 °C 9,2 °C 9,2 °C 55 % 92 % 1007,2 hPa 2,4 mm 0,0 km/h (0 Bft) N 0 ° 0 min 0,025 mm 111 W/m² 8,0 °C 9,2 °C 0,0 km/h (0 Bft) 100,00 %
06.05.2026 13:10 19,0 °C 8,9 °C 10,0 °C 8,9 °C 8,9 °C 55 % 92 % 1007,1 hPa 2,4 mm 0,5 km/h (0 Bft) N 5 ° 0 min 0,025 mm 103 W/m² 7,7 °C 8,9 °C 8,0 km/h (2 Bft) 100,00 %
06.05.2026 12:10 19,1 °C 8,6 °C 9,4 °C 8,5 °C 8,6 °C 55 % 92 % 1006,9 hPa 0,8 mm 0,6 km/h (0 Bft) N 11 ° 0 min 0,051 mm 98 W/m² 7,4 °C 8,6 °C 9,7 km/h (2 Bft) 95,90 %
06.05.2026 11:10 19,1 °C 8,2 °C 8,9 °C 8,1 °C 8,2 °C 55 % 92 % 1006,5 hPa 0,6 mm 0,2 km/h (0 Bft) N 7 ° 0 min 0,051 mm 97 W/m² 7,0 °C 8,2 °C 8,0 km/h (2 Bft) 99,17 %
06.05.2026 10:10 19,1 °C 7,6 °C 8,3 °C 7,6 °C 7,6 °C 55 % 90 % 1006,5 hPa 0,8 mm 1,7 km/h (1 Bft) N-NO 32 ° 0 min 0,025 mm 74 W/m² 6,1 °C 7,6 °C 12,9 km/h (3 Bft) 95,83 %
06.05.2026 09:10 19,3 °C 7,3 °C 8,3 °C 7,2 °C 7,3 °C 55 % 91 % 1006,3 hPa 0,8 mm 0,0 km/h (0 Bft) N-NO 13 ° 0 min 0,026 mm 79 W/m² 5,9 °C 7,3 °C 0,0 km/h (0 Bft) 100,00 %
06.05.2026 08:10 19,4 °C 7,0 °C 7,2 °C 7,0 °C 7,1 °C 54 % 91 % 1006,1 hPa 1,6 mm 3,4 km/h (1 Bft) N-NO 18 ° 0 min 0,025 mm 51 W/m² 5,6 °C 7,0 °C 11,3 km/h (2 Bft) 99,17 %
06.05.2026 07:10 19,6 °C 7,3 °C 7,8 °C 7,3 °C 7,4 °C 54 % 91 % 1006,0 hPa 1,4 mm 0,0 km/h (0 Bft) N 360 ° 0 min 0,000 mm 24 W/m² 5,9 °C 7,3 °C 0,0 km/h (0 Bft) 94,17 %
06.05.2026 06:10 19,7 °C 8,1 °C 8,3 °C 8,1 °C 8,1 °C 54 % 91 % 1006,0 hPa 1,6 mm 0,0 km/h (0 Bft) O-NO 58 ° 0 min 0,000 mm 0 W/m² 6,7 °C 8,1 °C 0,0 km/h (0 Bft) 99,08 %
06.05.2026 05:10 20,0 °C 8,9 °C 8,9 °C 8,8 °C 8,9 °C 54 % 90 % 1006,1 hPa 1,8 mm 0,0 km/h (0 Bft) N 2 ° 0 min 0,000 mm 0 W/m² 7,4 °C 8,9 °C 0,0 km/h (0 Bft) 100,00 %
06.05.2026 04:10 20,0 °C 9,8 °C 10,0 °C 9,8 °C 9,9 °C 54 % 89 % 1006,3 hPa 1,4 mm 0,0 km/h (0 Bft) W-NW 287 ° 0 min 0,000 mm 0 W/m² 8,1 °C 9,8 °C 0,0 km/h (0 Bft) 96,67 %
06.05.2026 03:10 20,1 °C 10,7 °C 10,6 °C 10,7 °C 10,7 °C 54 % 87 % 1006,6 hPa 0,4 mm 0,0 km/h (0 Bft) N 9 ° 0 min 0,000 mm 0 W/m² 8,6 °C 10,7 °C 0,0 km/h (0 Bft) 99,07 %
06.05.2026 02:10 20,2 °C 11,4 °C 10,6 °C 11,4 °C 11,4 °C 54 % 85 % 1006,9 hPa 0,0 mm 0,0 km/h (0 Bft) N-NO 12 ° 0 min 0,000 mm 0 W/m² 9,0 °C 11,4 °C 0,0 km/h (0 Bft) 99,13 %
06.05.2026 01:10 20,4 °C 11,7 °C 11,1 °C 11,7 °C 11,7 °C 54 % 85 % 1007,3 hPa 0,0 mm 0,0 km/h (0 Bft) NO 40 ° 0 min 0,000 mm 0 W/m² 9,3 °C 11,7 °C 0,0 km/h (0 Bft) 97,27 %
06.05.2026 00:10 20,5 °C 11,8 °C 11,1 °C 11,8 °C 11,8 °C 54 % 88 % 1007,6 hPa 0,0 mm 0,0 km/h (0 Bft) N-NW 329 ° 0 min 0,000 mm 0 W/m² 9,9 °C 11,8 °C 0,0 km/h (0 Bft) 100,00 %
06.05.2026 00:00 20,5 °C 11,8 °C 11,1 °C 11,8 °C 11,8 °C 54 % 88 % 1007,6 hPa 0,0 mm 0,0 km/h (0 Bft) N 2 ° 0 min 0,000 mm 0 W/m² 9,9 °C 11,8 °C 0,0 km/h (0 Bft) 100,00 %
_ Min-Zeit 20:05 08:15 07:35 08:15 08:20 00:00 02:30 05:45 - 00:00 - - - - - 08:15 08:05 00:00 09:05
Minimum _ 18,7 °C 6,9 °C 7,2 °C 6,9 °C 6,9 °C 54 % 84 % 1005,9 hPa - 0,0 km/h (0 Bft) - - - - - 5,5 °C 6,6 °C 0,0 km/h (0 Bft) 62,50 %
_ Max-Zeit 00:00 00:00 00:00 00:00 00:00 19:50 11:10 20:30 13:15 08:05 - - 19:20 18:00 17:30 00:00 00:00 08:20 00:00
Maximum _ 20,5 °C 11,8 °C 11,1 °C 11,8 °C 11,8 °C 57 % 92 % 1008,5 hPa 0,4 mm 4,6 km/h
NO (1 Bft)
- - 5 min 0,077 mm 168 W/m² 9,9 °C 11,8 °C 20,9 km/h
NO (4 Bft)
100,00 %
Durchschnitt _ 19,4 °C 9,1 °C 9,6 °C 9,1 °C 9,2 °C 55 % 90 % 1007,0 hPa #19,8 mm 0,4 km/h (0 Bft) N - #15 min. #0,584 mm 85 W/m² 7,5 °C 9,1 °C 3,0 km/h (1 Bft) 97,49 %
©2010 Thomas Mönnich